sensor_id;sensor_type;location;lat;lon;timestamp;pressure;altitude;pressure_sealevel;temperature;humidity
18652;BME280;9455;54.302;10.124;2022-10-30T00:01:43;101648.88;;;13.20;100.00
18652;BME280;9455;54.302;10.124;2022-10-30T00:04:10;101657.03;;;13.18;100.00
18652;BME280;9455;54.302;10.124;2022-10-30T00:06:37;101652.66;;;13.17;100.00
18652;BME280;9455;54.302;10.124;2022-10-30T00:09:03;101658.31;;;13.03;100.00
18652;BME280;9455;54.302;10.124;2022-10-30T00:11:45;101652.22;;;13.01;100.00
18652;BME280;9455;54.302;10.124;2022-10-30T00:14:12;101664.03;;;12.99;100.00
18652;BME280;9455;54.302;10.124;2022-10-30T00:16:38;101660.00;;;12.93;100.00
18652;BME280;9455;54.302;10.124;2022-10-30T00:19:05;101656.03;;;12.88;100.00
18652;BME280;9455;54.302;10.124;2022-10-30T00:21:32;101655.28;;;12.86;100.00
18652;BME280;9455;54.302;10.124;2022-10-30T00:23:58;101641.16;;;12.84;100.00
18652;BME280;9455;54.302;10.124;2022-10-30T00:26:25;101643.13;;;12.82;100.00
18652;BME280;9455;54.302;10.124;2022-10-30T00:28:54;101640.47;;;12.82;100.00
18652;BME280;9455;54.302;10.124;2022-10-30T00:31:21;101631.47;;;12.72;100.00
18652;BME280;9455;54.302;10.124;2022-10-30T00:33:49;101629.91;;;12.69;100.00
18652;BME280;9455;54.302;10.124;2022-10-30T00:36:16;101637.28;;;12.77;100.00
18652;BME280;9455;54.302;10.124;2022-10-30T00:38:47;101638.31;;;12.65;100.00
18652;BME280;9455;54.302;10.124;2022-10-30T00:41:14;101635.88;;;12.62;100.00
18652;BME280;9455;54.302;10.124;2022-10-30T00:43:42;101635.75;;;12.63;100.00
18652;BME280;9455;54.302;10.124;2022-10-30T00:46:17;101635.78;;;12.52;100.00
18652;BME280;9455;54.302;10.124;2022-10-30T00:48:48;101640.28;;;12.52;100.00
18652;BME280;9455;54.302;10.124;2022-10-30T00:51:15;101645.28;;;12.45;100.00
18652;BME280;9455;54.302;10.124;2022-10-30T00:53:43;101652.56;;;12.43;100.00
18652;BME280;9455;54.302;10.124;2022-10-30T00:56:13;101642.72;;;12.44;100.00
18652;BME280;9455;54.302;10.124;2022-10-30T00:58:43;101646.50;;;12.41;100.00
18652;BME280;9455;54.302;10.124;2022-10-30T01:01:16;101658.41;;;12.37;100.00
18652;BME280;9455;54.302;10.124;2022-10-30T01:03:45;101655.38;;;12.42;100.00
18652;BME280;9455;54.302;10.124;2022-10-30T01:06:14;101647.00;;;12.35;100.00
18652;BME280;9455;54.302;10.124;2022-10-30T01:08:42;101643.81;;;12.30;100.00
18652;BME280;9455;54.302;10.124;2022-10-30T01:11:09;101643.97;;;12.29;100.00
18652;BME280;9455;54.302;10.124;2022-10-30T01:13:38;101641.41;;;12.27;100.00
18652;BME280;9455;54.302;10.124;2022-10-30T01:16:18;101650.28;;;12.28;100.00
18652;BME280;9455;54.302;10.124;2022-10-30T01:18:57;101637.25;;;12.23;100.00
18652;BME280;9455;54.302;10.124;2022-10-30T01:21:35;101640.31;;;12.19;100.00
18652;BME280;9455;54.302;10.124;2022-10-30T01:24:37;101637.66;;;12.19;100.00
18652;BME280;9455;54.302;10.124;2022-10-30T01:27:17;101636.44;;;12.23;100.00
18652;BME280;9455;54.302;10.124;2022-10-30T01:29:55;101639.09;;;12.34;100.00
18652;BME280;9455;54.302;10.124;2022-10-30T01:32:40;101637.41;;;12.33;100.00
18652;BME280;9455;54.302;10.124;2022-10-30T01:35:14;101642.13;;;12.29;100.00
18652;BME280;9455;54.302;10.124;2022-10-30T01:37:47;101639.81;;;12.25;100.00
18652;BME280;9455;54.302;10.124;2022-10-30T01:40:17;101644.22;;;12.26;100.00
18652;BME280;9455;54.302;10.124;2022-10-30T01:42:48;101632.19;;;12.20;100.00
18652;BME280;9455;54.302;10.124;2022-10-30T01:45:19;101629.00;;;12.15;100.00
18652;BME280;9455;54.302;10.124;2022-10-30T01:47:59;101636.91;;;12.17;100.00
18652;BME280;9455;54.302;10.124;2022-10-30T01:50:37;101626.69;;;12.11;100.00
18652;BME280;9455;54.302;10.124;2022-10-30T01:53:15;101627.69;;;12.10;100.00
18652;BME280;9455;54.302;10.124;2022-10-30T01:55:50;101629.88;;;12.05;100.00
18652;BME280;9455;54.302;10.124;2022-10-30T01:58:21;101620.28;;;12.13;100.00
18652;BME280;9455;54.302;10.124;2022-10-30T02:00:52;101623.06;;;12.12;100.00
18652;BME280;9455;54.302;10.124;2022-10-30T02:03:23;101616.75;;;12.02;100.00
18652;BME280;9455;54.302;10.124;2022-10-30T02:05:51;101621.84;;;12.05;100.00
18652;BME280;9455;54.302;10.124;2022-10-30T02:08:19;101618.56;;;12.01;100.00
18652;BME280;9455;54.302;10.124;2022-10-30T02:10:47;101624.66;;;12.03;100.00
18652;BME280;9455;54.302;10.124;2022-10-30T02:13:14;101622.94;;;12.02;100.00
18652;BME280;9455;54.302;10.124;2022-10-30T02:15:42;101617.22;;;12.07;100.00
18652;BME280;9455;54.302;10.124;2022-10-30T02:18:10;101621.97;;;12.03;100.00
18652;BME280;9455;54.302;10.124;2022-10-30T02:20:38;101619.44;;;12.02;100.00
18652;BME280;9455;54.302;10.124;2022-10-30T02:23:05;101613.09;;;12.03;100.00
18652;BME280;9455;54.302;10.124;2022-10-30T02:25:33;101607.50;;;12.06;100.00
18652;BME280;9455;54.302;10.124;2022-10-30T02:27:59;101603.97;;;12.05;100.00
18652;BME280;9455;54.302;10.124;2022-10-30T02:30:26;101607.50;;;12.06;100.00
18652;BME280;9455;54.302;10.124;2022-10-30T02:32:53;101600.47;;;12.05;100.00
18652;BME280;9455;54.302;10.124;2022-10-30T02:35:19;101602.16;;;12.06;100.00
18652;BME280;9455;54.302;10.124;2022-10-30T02:37:47;101606.53;;;12.07;100.00
18652;BME280;9455;54.302;10.124;2022-10-30T02:40:14;101600.19;;;12.08;100.00
18652;BME280;9455;54.302;10.124;2022-10-30T02:42:41;101610.19;;;12.06;100.00
18652;BME280;9455;54.302;10.124;2022-10-30T02:45:08;101607.50;;;12.06;100.00
18652;BME280;9455;54.302;10.124;2022-10-30T02:47:35;101607.75;;;12.03;100.00
18652;BME280;9455;54.302;10.124;2022-10-30T02:50:02;101604.34;;;12.01;100.00
18652;BME280;9455;54.302;10.124;2022-10-30T02:52:28;101605.81;;;12.05;100.00
18652;BME280;9455;54.302;10.124;2022-10-30T02:54:56;101591.72;;;12.03;100.00
18652;BME280;9455;54.302;10.124;2022-10-30T02:57:23;101592.81;;;12.00;100.00
18652;BME280;9455;54.302;10.124;2022-10-30T02:59:49;101598.03;;;12.02;100.00
18652;BME280;9455;54.302;10.124;2022-10-30T03:02:16;101591.47;;;12.06;100.00
18652;BME280;9455;54.302;10.124;2022-10-30T03:04:42;101585.88;;;12.09;100.00
18652;BME280;9455;54.302;10.124;2022-10-30T03:07:09;101594.38;;;12.03;100.00
18652;BME280;9455;54.302;10.124;2022-10-30T03:09:36;101600.47;;;12.05;100.00
18652;BME280;9455;54.302;10.124;2022-10-30T03:12:04;101591.72;;;12.03;100.00
18652;BME280;9455;54.302;10.124;2022-10-30T03:14:30;101595.47;;;12.00;100.00
18652;BME280;9455;54.302;10.124;2022-10-30T03:16:57;101590.13;;;12.00;100.00
18652;BME280;9455;54.302;10.124;2022-10-30T03:19:23;101592.31;;;11.95;100.00
18652;BME280;9455;54.302;10.124;2022-10-30T03:21:51;101597.06;;;11.92;100.00
18652;BME280;9455;54.302;10.124;2022-10-30T03:24:18;101594.41;;;11.92;100.00
18652;BME280;9455;54.302;10.124;2022-10-30T03:26:45;101596.19;;;11.91;100.00
18652;BME280;9455;54.302;10.124;2022-10-30T03:29:13;101589.88;;;11.81;100.00
18652;BME280;9455;54.302;10.124;2022-10-30T03:31:40;101590.00;;;11.80;100.00
18652;BME280;9455;54.302;10.124;2022-10-30T03:34:06;101586.50;;;11.79;100.00
18652;BME280;9455;54.302;10.124;2022-10-30T03:36:33;101591.09;;;11.77;100.00
18652;BME280;9455;54.302;10.124;2022-10-30T03:38:59;101591.56;;;11.71;100.00
18652;BME280;9455;54.302;10.124;2022-10-30T03:41:26;101589.03;;;11.70;100.00
18652;BME280;9455;54.302;10.124;2022-10-30T03:43:52;101584.53;;;11.70;100.00
18652;BME280;9455;54.302;10.124;2022-10-30T03:46:20;101585.50;;;11.69;100.00
18652;BME280;9455;54.302;10.124;2022-10-30T03:48:47;101592.44;;;11.72;100.00
18652;BME280;9455;54.302;10.124;2022-10-30T03:51:15;101584.66;;;11.69;100.00
18652;BME280;9455;54.302;10.124;2022-10-30T03:53:41;101587.78;;;11.63;100.00
18652;BME280;9455;54.302;10.124;2022-10-30T03:56:08;101585.13;;;11.63;100.00
18652;BME280;9455;54.302;10.124;2022-10-30T03:58:35;101581.59;;;11.51;100.00
18652;BME280;9455;54.302;10.124;2022-10-30T04:01:02;101581.34;;;11.54;100.00
18652;BME280;9455;54.302;10.124;2022-10-30T04:03:31;101578.06;;;11.51;100.00
18652;BME280;9455;54.302;10.124;2022-10-30T04:05:58;101574.63;;;11.49;100.00
18652;BME280;9455;54.302;10.124;2022-10-30T04:08:25;101583.41;;;11.51;100.00
18652;BME280;9455;54.302;10.124;2022-10-30T04:10:51;101580.25;;;11.46;100.00
18652;BME280;9455;54.302;10.124;2022-10-30T04:13:18;101586.81;;;11.53;100.00
18652;BME280;9455;54.302;10.124;2022-10-30T04:15:46;101579.50;;;11.55;100.00
18652;BME280;9455;54.302;10.124;2022-10-30T04:18:14;101582.47;;;11.63;100.00
18652;BME280;9455;54.302;10.124;2022-10-30T04:20:43;101589.28;;;11.67;100.00
18652;BME280;9455;54.302;10.124;2022-10-30T04:23:12;101587.09;;;11.72;100.00
18652;BME280;9455;54.302;10.124;2022-10-30T04:25:39;101588.53;;;11.76;100.00
18652;BME280;9455;54.302;10.124;2022-10-30T04:28:06;101587.94;;;11.83;100.00
18652;BME280;9455;54.302;10.124;2022-10-30T04:30:32;101589.16;;;11.90;100.00
18652;BME280;9455;54.302;10.124;2022-10-30T04:33:00;101593.78;;;11.99;100.00
18652;BME280;9455;54.302;10.124;2022-10-30T04:35:30;101588.91;;;12.04;100.00
18652;BME280;9455;54.302;10.124;2022-10-30T04:37:59;101587.91;;;12.16;100.00
18652;BME280;9455;54.302;10.124;2022-10-30T04:40:27;101584.88;;;12.21;100.00
18652;BME280;9455;54.302;10.124;2022-10-30T04:42:55;101582.09;;;12.22;100.00
18652;BME280;9455;54.302;10.124;2022-10-30T04:45:22;101579.53;;;12.21;100.00
18652;BME280;9455;54.302;10.124;2022-10-30T04:47:48;101579.91;;;12.27;100.00
18652;BME280;9455;54.302;10.124;2022-10-30T04:50:15;101585.84;;;12.31;100.00
18652;BME280;9455;54.302;10.124;2022-10-30T04:52:42;101570.66;;;12.31;100.00
18652;BME280;9455;54.302;10.124;2022-10-30T04:55:10;101576.47;;;12.36;100.00
18652;BME280;9455;54.302;10.124;2022-10-30T04:57:37;101579.00;;;12.38;100.00
18652;BME280;9455;54.302;10.124;2022-10-30T05:00:04;101578.28;;;12.47;100.00
18652;BME280;9455;54.302;10.124;2022-10-30T05:02:33;101576.09;;;12.41;100.00
18652;BME280;9455;54.302;10.124;2022-10-30T05:04:59;101569.88;;;12.40;100.00
18652;BME280;9455;54.302;10.124;2022-10-30T05:07:26;101579.88;;;12.38;100.00
18652;BME280;9455;54.302;10.124;2022-10-30T05:09:53;101574.28;;;12.30;100.00
18652;BME280;9455;54.302;10.124;2022-10-30T05:12:20;101573.22;;;12.33;100.00
18652;BME280;9455;54.302;10.124;2022-10-30T05:14:47;101574.44;;;12.29;100.00
18652;BME280;9455;54.302;10.124;2022-10-30T05:17:14;101579.63;;;12.30;100.00
18652;BME280;9455;54.302;10.124;2022-10-30T05:19:40;101580.25;;;12.34;100.00
18652;BME280;9455;54.302;10.124;2022-10-30T05:22:07;101580.72;;;12.28;100.00
18652;BME280;9455;54.302;10.124;2022-10-30T05:24:34;101580.72;;;12.39;100.00
18652;BME280;9455;54.302;10.124;2022-10-30T05:27:01;101580.25;;;12.34;100.00
18652;BME280;9455;54.302;10.124;2022-10-30T05:29:29;101573.69;;;12.27;100.00
18652;BME280;9455;54.302;10.124;2022-10-30T05:31:55;101576.84;;;12.32;100.00
18652;BME280;9455;54.302;10.124;2022-10-30T05:34:22;101580.97;;;12.25;100.00
18652;BME280;9455;54.302;10.124;2022-10-30T05:36:48;101575.25;;;12.29;100.00
18652;BME280;9455;54.302;10.124;2022-10-30T05:39:15;101571.28;;;12.24;100.00
18652;BME280;9455;54.302;10.124;2022-10-30T05:41:41;101578.06;;;12.28;100.00
18652;BME280;9455;54.302;10.124;2022-10-30T05:44:08;101576.84;;;12.21;100.00
18652;BME280;9455;54.302;10.124;2022-10-30T05:46:36;101578.31;;;12.36;100.00
18652;BME280;9455;54.302;10.124;2022-10-30T05:49:02;101576.34;;;12.38;100.00
18652;BME280;9455;54.302;10.124;2022-10-30T05:51:29;101573.69;;;12.27;100.00
18652;BME280;9455;54.302;10.124;2022-10-30T05:53:55;101580.50;;;12.31;100.00
18652;BME280;9455;54.302;10.124;2022-10-30T05:56:22;101573.34;;;12.20;100.00
18652;BME280;9455;54.302;10.124;2022-10-30T05:58:49;101578.06;;;12.28;100.00
18652;BME280;9455;54.302;10.124;2022-10-30T06:01:16;101578.94;;;12.28;100.00
18652;BME280;9455;54.302;10.124;2022-10-30T06:03:44;101584.28;;;12.17;100.00
18652;BME280;9455;54.302;10.124;2022-10-30T06:06:11;101583.66;;;12.25;100.00
18652;BME280;9455;54.302;10.124;2022-10-30T06:08:37;101587.69;;;12.19;100.00
18652;BME280;9455;54.302;10.124;2022-10-30T06:11:04;101588.53;;;12.20;100.00
18652;BME280;9455;54.302;10.124;2022-10-30T06:13:30;101598.25;;;12.10;100.00
18652;BME280;9455;54.302;10.124;2022-10-30T06:15:57;101594.16;;;12.06;100.00
18652;BME280;9455;54.302;10.124;2022-10-30T06:18:23;101594.16;;;12.06;100.00
18652;BME280;9455;54.302;10.124;2022-10-30T06:20:53;101600.31;;;11.95;100.00
18652;BME280;9455;54.302;10.124;2022-10-30T06:23:19;101589.75;;;11.94;100.00
18652;BME280;9455;54.302;10.124;2022-10-30T06:25:46;101584.66;;;12.02;100.00
18652;BME280;9455;54.302;10.124;2022-10-30T06:28:13;101590.84;;;12.02;100.00
18652;BME280;9455;54.302;10.124;2022-10-30T06:30:39;101586.72;;;11.98;100.00
18652;BME280;9455;54.302;10.124;2022-10-30T06:33:06;101597.53;;;11.97;100.00
18652;BME280;9455;54.302;10.124;2022-10-30T06:35:32;101593.16;;;11.96;100.00
18652;BME280;9455;54.302;10.124;2022-10-30T06:38:00;101593.06;;;11.97;100.00
18652;BME280;9455;54.302;10.124;2022-10-30T06:40:29;101596.06;;;12.04;100.00
18652;BME280;9455;54.302;10.124;2022-10-30T06:42:55;101596.09;;;11.93;100.00
18652;BME280;9455;54.302;10.124;2022-10-30T06:45:22;101603.13;;;11.94;100.00
18652;BME280;9455;54.302;10.124;2022-10-30T06:47:49;101594.16;;;11.95;100.00
18652;BME280;9455;54.302;10.124;2022-10-30T06:50:17;101586.84;;;11.97;100.00
18652;BME280;9455;54.302;10.124;2022-10-30T06:52:44;101603.00;;;11.95;100.00
18652;BME280;9455;54.302;10.124;2022-10-30T06:55:14;101601.66;;;12.01;100.00
18652;BME280;9455;54.302;10.124;2022-10-30T06:57:40;101595.59;;;11.99;100.00
18652;BME280;9455;54.302;10.124;2022-10-30T07:00:08;101599.25;;;12.09;100.00
18652;BME280;9455;54.302;10.124;2022-10-30T07:02:34;101605.53;;;12.08;100.00
18652;BME280;9455;54.302;10.124;2022-10-30T07:05:01;101599.25;;;11.98;100.00
18652;BME280;9455;54.302;10.124;2022-10-30T07:07:28;101608.50;;;12.05;100.00
18652;BME280;9455;54.302;10.124;2022-10-30T07:09:55;101605.94;;;12.14;100.00
18652;BME280;9455;54.302;10.124;2022-10-30T07:12:22;101599.47;;;12.17;100.00
18652;BME280;9455;54.302;10.124;2022-10-30T07:14:49;101612.25;;;12.24;100.00
18652;BME280;9455;54.302;10.124;2022-10-30T07:17:16;101613.94;;;12.25;100.00
18652;BME280;9455;54.302;10.124;2022-10-30T07:19:42;101613.56;;;12.30;100.00
18652;BME280;9455;54.302;10.124;2022-10-30T07:22:09;101608.94;;;12.32;100.00
18652;BME280;9455;54.302;10.124;2022-10-30T07:24:35;101613.78;;;12.38;100.00
18652;BME280;9455;54.302;10.124;2022-10-30T07:27:02;101618.91;;;12.41;100.00
18652;BME280;9455;54.302;10.124;2022-10-30T07:29:30;101618.53;;;12.45;100.00
18652;BME280;9455;54.302;10.124;2022-10-30T07:31:56;101605.75;;;12.49;100.00
18652;BME280;9455;54.302;10.124;2022-10-30T07:34:23;101616.56;;;12.47;100.00
18652;BME280;9455;54.302;10.124;2022-10-30T07:36:49;101615.47;;;12.61;100.00
18652;BME280;9455;54.302;10.124;2022-10-30T07:39:16;101617.88;;;12.64;100.00
18652;BME280;9455;54.302;10.124;2022-10-30T07:41:49;101606.06;;;12.66;100.00
18652;BME280;9455;54.302;10.124;2022-10-30T07:44:34;101615.22;;;12.64;100.00
18652;BME280;9455;54.302;10.124;2022-10-30T07:47:01;101615.28;;;12.73;100.00
18652;BME280;9455;54.302;10.124;2022-10-30T07:49:27;101620.53;;;12.75;100.00
18652;BME280;9455;54.302;10.124;2022-10-30T07:51:54;101627.31;;;12.79;100.00
18652;BME280;9455;54.302;10.124;2022-10-30T07:54:20;101628.63;;;12.84;100.00
18652;BME280;9455;54.302;10.124;2022-10-30T07:56:47;101625.59;;;12.89;100.00
18652;BME280;9455;54.302;10.124;2022-10-30T07:59:14;101634.59;;;12.88;100.00
18652;BME280;9455;54.302;10.124;2022-10-30T08:01:42;101631.78;;;13.00;100.00
18652;BME280;9455;54.302;10.124;2022-10-30T08:04:08;101637.97;;;13.01;100.00
18652;BME280;9455;54.302;10.124;2022-10-30T08:06:35;101632.31;;;13.15;100.00
18652;BME280;9455;54.302;10.124;2022-10-30T08:09:02;101627.94;;;13.14;100.00
18652;BME280;9455;54.302;10.124;2022-10-30T08:11:28;101634.97;;;13.26;100.00
18652;BME280;9455;54.302;10.124;2022-10-30T08:13:55;101631.31;;;13.27;100.00
18652;BME280;9455;54.302;10.124;2022-10-30T08:16:22;101630.13;;;13.40;100.00
18652;BME280;9455;54.302;10.124;2022-10-30T08:18:50;101635.09;;;13.45;100.00
18652;BME280;9455;54.302;10.124;2022-10-30T08:21:17;101639.09;;;13.50;100.00
18652;BME280;9455;54.302;10.124;2022-10-30T08:23:43;101640.50;;;13.54;100.00
18652;BME280;9455;54.302;10.124;2022-10-30T08:26:10;101643.97;;;13.66;100.00
18652;BME280;9455;54.302;10.124;2022-10-30T08:28:36;101633.25;;;13.66;100.00
18652;BME280;9455;54.302;10.124;2022-10-30T08:31:03;101636.28;;;13.72;100.00
18652;BME280;9455;54.302;10.124;2022-10-30T08:33:30;101629.66;;;13.76;100.00
18652;BME280;9455;54.302;10.124;2022-10-30T08:35:58;101634.47;;;13.82;100.00
18652;BME280;9455;54.302;10.124;2022-10-30T08:38:27;101634.22;;;13.85;100.00
18652;BME280;9455;54.302;10.124;2022-10-30T08:40:54;101640.31;;;13.88;100.00
18652;BME280;9455;54.302;10.124;2022-10-30T08:43:21;101629.72;;;13.86;100.00
18652;BME280;9455;54.302;10.124;2022-10-30T08:45:49;101637.03;;;13.84;100.00
18652;BME280;9455;54.302;10.124;2022-10-30T08:48:16;101634.09;;;13.87;100.00
18652;BME280;9455;54.302;10.124;2022-10-30T08:50:43;101630.28;;;13.89;100.00
18652;BME280;9455;54.302;10.124;2022-10-30T08:53:13;101637.50;;;13.89;100.00
18652;BME280;9455;54.302;10.124;2022-10-30T08:55:43;101633.25;;;13.87;100.00
18652;BME280;9455;54.302;10.124;2022-10-30T08:58:09;101628.31;;;13.92;100.00
18652;BME280;9455;54.302;10.124;2022-10-30T09:00:36;101632.56;;;13.94;100.00
18652;BME280;9455;54.302;10.124;2022-10-30T09:03:03;101636.53;;;14.00;100.00
18652;BME280;9455;54.302;10.124;2022-10-30T09:05:29;101640.09;;;14.00;100.00
18652;BME280;9455;54.302;10.124;2022-10-30T09:07:56;101630.09;;;14.02;100.00
18652;BME280;9455;54.302;10.124;2022-10-30T09:10:26;101632.47;;;14.05;100.00
18652;BME280;9455;54.302;10.124;2022-10-30T09:12:55;101640.00;;;14.11;100.00
18652;BME280;9455;54.302;10.124;2022-10-30T09:15:22;101647.03;;;14.12;100.00
18652;BME280;9455;54.302;10.124;2022-10-30T09:17:54;101647.00;;;14.23;100.00
18652;BME280;9455;54.302;10.124;2022-10-30T09:20:21;101637.44;;;14.30;100.00
18652;BME280;9455;54.302;10.124;2022-10-30T09:22:48;101637.84;;;14.35;100.00
18652;BME280;9455;54.302;10.124;2022-10-30T09:25:14;101641.84;;;14.41;100.00
18652;BME280;9455;54.302;10.124;2022-10-30T09:27:42;101648.63;;;14.45;100.00
18652;BME280;9455;54.302;10.124;2022-10-30T09:30:10;101648.53;;;14.56;100.00
18652;BME280;9455;54.302;10.124;2022-10-30T09:32:37;101647.41;;;14.58;100.00
18652;BME280;9455;54.302;10.124;2022-10-30T09:35:04;101649.25;;;14.67;100.00
18652;BME280;9455;54.302;10.124;2022-10-30T09:37:33;101650.38;;;14.74;100.00
18652;BME280;9455;54.302;10.124;2022-10-30T09:39:59;101649.56;;;14.83;100.00
18652;BME280;9455;54.302;10.124;2022-10-30T09:42:42;101658.78;;;14.90;100.00
18652;BME280;9455;54.302;10.124;2022-10-30T09:45:20;101662.59;;;14.97;100.00
18652;BME280;9455;54.302;10.124;2022-10-30T09:48:00;101661.78;;;15.06;100.00
18652;BME280;9455;54.302;10.124;2022-10-30T09:50:30;101653.84;;;15.14;100.00
18652;BME280;9455;54.302;10.124;2022-10-30T09:53:06;101668.28;;;15.13;100.00
18652;BME280;9455;54.302;10.124;2022-10-30T09:55:41;101662.75;;;15.24;100.00
18652;BME280;9455;54.302;10.124;2022-10-30T09:58:21;101672.22;;;15.28;100.00
18652;BME280;9455;54.302;10.124;2022-10-30T10:00:53;101670.25;;;15.30;100.00
18652;BME280;9455;54.302;10.124;2022-10-30T10:03:32;101674.53;;;15.42;100.00
18652;BME280;9455;54.302;10.124;2022-10-30T10:06:04;101670.28;;;15.49;100.00
18652;BME280;9455;54.302;10.124;2022-10-30T10:08:39;101669.00;;;15.53;100.00
18652;BME280;9455;54.302;10.124;2022-10-30T10:11:11;101664.75;;;15.60;100.00
18652;BME280;9455;54.302;10.124;2022-10-30T10:13:47;101668.84;;;15.64;100.00
18652;BME280;9455;54.302;10.124;2022-10-30T10:16:17;101663.59;;;15.72;100.00
18652;BME280;9455;54.302;10.124;2022-10-30T10:18:47;101661.03;;;15.80;100.00
18652;BME280;9455;54.302;10.124;2022-10-30T10:21:20;101661.44;;;15.85;100.00
18652;BME280;9455;54.302;10.124;2022-10-30T10:23:50;101657.00;;;15.94;100.00
18652;BME280;9455;54.302;10.124;2022-10-30T10:26:27;101656.59;;;15.98;100.00
18652;BME280;9455;54.302;10.124;2022-10-30T10:29:18;101657.25;;;16.10;100.00
18652;BME280;9455;54.302;10.124;2022-10-30T10:32:02;101658.50;;;16.15;100.00
18652;BME280;9455;54.302;10.124;2022-10-30T10:34:48;101658.50;;;16.15;100.00
18652;BME280;9455;54.302;10.124;2022-10-30T10:37:24;101662.22;;;16.14;100.00
18652;BME280;9455;54.302;10.124;2022-10-30T10:40:13;101671.25;;;16.23;100.00
18652;BME280;9455;54.302;10.124;2022-10-30T10:42:51;101670.66;;;16.29;100.00
18652;BME280;9455;54.302;10.124;2022-10-30T10:45:29;101665.53;;;16.35;100.00
18652;BME280;9455;54.302;10.124;2022-10-30T10:48:22;101660.66;;;16.39;100.00
18652;BME280;9455;54.302;10.124;2022-10-30T10:50:55;101666.66;;;16.42;100.00
18652;BME280;9455;54.302;10.124;2022-10-30T10:53:26;101662.97;;;16.43;100.00
18652;BME280;9455;54.302;10.124;2022-10-30T10:55:57;101659.53;;;16.51;100.00
18652;BME280;9455;54.302;10.124;2022-10-30T10:58:30;101658.94;;;16.57;100.00
18652;BME280;9455;54.302;10.124;2022-10-30T11:01:00;101660.78;;;16.57;100.00
18652;BME280;9455;54.302;10.124;2022-10-30T11:03:42;101653.84;;;16.54;100.00
18652;BME280;9455;54.302;10.124;2022-10-30T11:06:18;101645.91;;;16.53;100.00
18652;BME280;9455;54.302;10.124;2022-10-30T11:08:47;101655.25;;;16.58;100.00
18652;BME280;9455;54.302;10.124;2022-10-30T11:11:14;101648.69;;;16.61;100.00
18652;BME280;9455;54.302;10.124;2022-10-30T11:13:42;101652.19;;;16.71;99.94
18652;BME280;9455;54.302;10.124;2022-10-30T11:16:20;101645.25;;;16.68;100.00
18652;BME280;9455;54.302;10.124;2022-10-30T11:18:54;101643.81;;;16.74;100.00
18652;BME280;9455;54.302;10.124;2022-10-30T11:21:59;101645.91;;;16.80;100.00
18652;BME280;9455;54.302;10.124;2022-10-30T11:24:32;101644.28;;;16.87;99.73
18652;BME280;9455;54.302;10.124;2022-10-30T11:27:16;101657.84;;;16.95;99.28
18652;BME280;9455;54.302;10.124;2022-10-30T11:30:26;101656.16;;;16.94;99.46
18652;BME280;9455;54.302;10.124;2022-10-30T11:32:47;101660.09;;;16.99;99.79
18652;BME280;9455;54.302;10.124;2022-10-30T11:35:16;101652.06;;;17.07;99.96
18652;BME280;9455;54.302;10.124;2022-10-30T11:37:44;101653.16;;;17.14;98.78
18652;BME280;9455;54.302;10.124;2022-10-30T11:40:16;101655.41;;;17.19;98.97
18652;BME280;9455;54.302;10.124;2022-10-30T11:42:55;101661.66;;;17.19;99.58
18652;BME280;9455;54.302;10.124;2022-10-30T11:45:25;101657.00;;;17.29;98.51
18652;BME280;9455;54.302;10.124;2022-10-30T11:48:00;101646.91;;;17.31;97.96
18652;BME280;9455;54.302;10.124;2022-10-30T11:50:28;101654.09;;;17.40;97.66
18652;BME280;9455;54.302;10.124;2022-10-30T11:53:09;101661.31;;;17.40;97.39
18652;BME280;9455;54.302;10.124;2022-10-30T11:55:39;101659.16;;;17.43;97.02
18652;BME280;9455;54.302;10.124;2022-10-30T11:58:06;101658.88;;;17.46;96.55
18652;BME280;9455;54.302;10.124;2022-10-30T12:00:35;101664.81;;;17.50;96.70
18652;BME280;9455;54.302;10.124;2022-10-30T12:03:03;101663.78;;;17.51;96.47
18652;BME280;9455;54.302;10.124;2022-10-30T12:05:50;101660.78;;;17.54;95.70
18652;BME280;9455;54.302;10.124;2022-10-30T12:08:18;101668.19;;;17.52;95.30
18652;BME280;9455;54.302;10.124;2022-10-30T12:10:53;101665.16;;;17.55;95.86
18652;BME280;9455;54.302;10.124;2022-10-30T12:13:22;101665.13;;;17.47;95.55
18652;BME280;9455;54.302;10.124;2022-10-30T12:16:03;101664.50;;;17.53;95.82
18652;BME280;9455;54.302;10.124;2022-10-30T12:18:33;101676.66;;;17.57;95.83
18652;BME280;9455;54.302;10.124;2022-10-30T12:21:02;101674.44;;;17.52;95.83
18652;BME280;9455;54.302;10.124;2022-10-30T12:23:29;101675.28;;;17.53;95.85
18652;BME280;9455;54.302;10.124;2022-10-30T12:25:58;101675.19;;;17.62;95.57
18652;BME280;9455;54.302;10.124;2022-10-30T12:28:27;101682.28;;;17.63;95.53
18652;BME280;9455;54.302;10.124;2022-10-30T12:31:03;101675.03;;;17.64;95.32
18652;BME280;9455;54.302;10.124;2022-10-30T12:33:35;101668.47;;;17.66;95.19
18652;BME280;9455;54.302;10.124;2022-10-30T12:36:08;101663.25;;;17.65;95.37
18652;BME280;9455;54.302;10.124;2022-10-30T12:38:40;101660.69;;;17.63;95.54
18652;BME280;9455;54.302;10.124;2022-10-30T12:41:13;101663.53;;;17.62;95.35
18652;BME280;9455;54.302;10.124;2022-10-30T12:43:47;101668.78;;;17.63;95.20
18652;BME280;9455;54.302;10.124;2022-10-30T12:46:27;101663.25;;;17.65;95.39
18652;BME280;9455;54.302;10.124;2022-10-30T12:49:03;101658.47;;;17.59;95.72
18652;BME280;9455;54.302;10.124;2022-10-30T12:51:35;101666.94;;;17.64;95.37
18652;BME280;9455;54.302;10.124;2022-10-30T12:54:08;101672.66;;;17.61;95.51